Time;durP1;ratioP1;P1;durP2;ratioP2;P2;SDS_P1;SDS_P2;PMS_P1;PMS_P2;Temp;Humidity;BMP_temperature;BMP_pressure;BME280_temperature;BME280_humidity;BME280_pressure;Samples;Min_cycle;Max_cycle;Signal;HPM_P1;HPM_P2
2021/08/25 00:00:37;;;;;;;18.32;9.48;;;;;;;10.24;78.08;100880.27;1819346;78;25750;-69
2021/08/25 00:03:05;;;;;;;13.50;7.42;;;;;;;10.22;78.19;100877.05;1819441;78;28035;-69
2021/08/25 00:05:32;;;;;;;17.95;8.85;;;;;;;10.19;78.08;100874.37;1819136;78;25743;-69
2021/08/25 00:07:59;;;;;;;14.65;9.40;;;;;;;10.16;78.12;100878.22;1819323;78;25688;-69
2021/08/25 00:10:25;;;;;;;66.12;32.65;;;;;;;10.13;78.11;100882.84;1819405;78;25921;-68
2021/08/25 00:12:51;;;;;;;143.85;75.25;;;;;;;10.10;78.17;100876.14;1787359;78;25736;-69
2021/08/25 00:15:18;;;;;;;145.60;70.42;;;;;;;10.07;78.24;100876.16;1819345;78;28108;-69
2021/08/25 00:17:44;;;;;;;305.73;160.40;;;;;;;10.07;78.38;100874.01;1819287;78;25668;-69
2021/08/25 00:20:12;;;;;;;328.42;169.45;;;;;;;10.04;78.73;100870.53;1819120;78;26245;-69
2021/08/25 00:22:38;;;;;;;259.25;132.82;;;;;;;10.04;79.24;100865.13;1819592;78;26033;-69
2021/08/25 00:25:06;;;;;;;244.00;123.65;;;;;;;10.07;79.44;100869.95;1819279;78;25707;-69
2021/08/25 00:27:32;;;;;;;150.22;70.52;;;;;;;10.09;79.61;100865.06;1819371;78;27468;-69
2021/08/25 00:29:59;;;;;;;89.25;44.35;;;;;;;10.12;79.82;100859.07;1819213;78;25737;-69
2021/08/25 00:32:25;;;;;;;90.95;44.85;;;;;;;10.17;79.89;100856.86;1819341;78;25814;-69
2021/08/25 00:34:51;;;;;;;37.78;19.67;;;;;;;10.19;80.16;100858.16;1802371;79;25829;-69
2021/08/25 00:37:18;;;;;;;29.48;15.20;;;;;;;10.23;80.55;100852.97;1802589;79;25817;-69
2021/08/25 00:39:44;;;;;;;20.30;10.95;;;;;;;10.26;80.66;100849.68;1802655;79;27474;-69
2021/08/25 00:42:13;;;;;;;21.27;9.45;;;;;;;10.29;80.60;100851.80;1802156;79;27108;-69
2021/08/25 00:44:40;;;;;;;16.35;7.90;;;;;;;10.31;80.83;100848.25;1802624;79;25733;-69
2021/08/25 00:47:08;;;;;;;13.43;6.83;;;;;;;10.29;79.92;100842.34;1802870;79;25835;-69
2021/08/25 00:49:34;;;;;;;18.50;8.40;;;;;;;10.24;79.47;100836.45;1802471;79;25847;-70
2021/08/25 00:52:00;;;;;;;16.67;7.12;;;;;;;10.20;79.19;100837.32;1802540;79;27295;-70
2021/08/25 00:54:27;;;;;;;12.82;7.12;;;;;;;10.14;78.97;100837.16;1802536;79;25849;-69
2021/08/25 00:56:53;;;;;;;13.60;6.95;;;;;;;10.07;78.96;100840.22;1802466;79;26037;-69
2021/08/25 00:59:21;;;;;;;15.45;7.28;;;;;;;10.00;78.83;100839.23;1802581;79;26486;-69
2021/08/25 01:02:02;;;;;;;14.70;7.53;;;;;;;9.93;78.83;100833.92;1802562;79;26151;-69
2021/08/25 01:04:34;;;;;;;15.48;7.70;;;;;;;9.87;78.77;100837.25;1800507;79;28208;-69
2021/08/25 01:07:02;;;;;;;13.75;7.10;;;;;;;9.81;78.83;100837.88;1817949;78;25963;-69
2021/08/25 01:09:29;;;;;;;16.57;7.45;;;;;;;9.75;78.81;100834.17;1819369;78;26383;-70
2021/08/25 01:12:00;;;;;;;13.22;6.70;;;;;;;9.67;78.63;100835.61;1819209;78;25819;-70
2021/08/25 01:14:25;;;;;;;13.28;7.12;;;;;;;9.61;78.63;100829.47;1818829;78;25746;-70
2021/08/25 01:16:52;;;;;;;16.48;7.55;;;;;;;9.57;79.12;100829.80;1819372;78;27320;-69
2021/08/25 01:19:20;;;;;;;14.23;7.17;;;;;;;9.53;79.25;100828.23;1819000;78;25716;-68
2021/08/25 01:21:48;;;;;;;14.65;7.65;;;;;;;9.49;79.39;100825.03;1819413;78;25316;-69
2021/08/25 01:24:17;;;;;;;13.78;6.72;;;;;;;9.45;79.45;100829.39;1820766;78;25782;-69
2021/08/25 01:26:45;;;;;;;17.65;7.30;;;;;;;9.42;79.32;100833.48;1825566;78;25767;-69
2021/08/25 01:29:31;;;;;;;14.53;7.40;;;;;;;9.37;79.44;100831.39;1825673;78;27311;-69
2021/08/25 01:31:57;;;;;;;15.40;7.60;;;;;;;9.32;79.55;100826.84;1825278;78;25707;-69
2021/08/25 01:34:23;;;;;;;16.07;7.08;;;;;;;9.28;79.89;100825.27;1825246;78;25857;-69
2021/08/25 01:36:54;;;;;;;13.90;6.97;;;;;;;9.26;79.87;100826.63;1795281;78;25735;-69
2021/08/25 01:39:21;;;;;;;13.58;7.65;;;;;;;9.23;79.95;100823.16;1825456;78;26133;-68
2021/08/25 01:41:49;;;;;;;15.30;6.47;;;;;;;9.21;79.87;100828.05;1825312;78;27369;-69
2021/08/25 01:44:16;;;;;;;17.27;7.47;;;;;;;9.19;79.89;100824.83;1825458;78;26264;-69
2021/08/25 01:46:43;;;;;;;11.90;6.53;;;;;;;9.16;79.94;100822.17;1825469;78;25731;-70
2021/08/25 01:49:15;;;;;;;12.58;6.70;;;;;;;9.13;79.80;100822.73;1825305;78;26251;-69
2021/08/25 01:51:42;;;;;;;16.70;7.58;;;;;;;9.11;80.05;100824.92;1825550;78;26432;-69
2021/08/25 01:54:12;;;;;;;15.08;7.62;;;;;;;9.07;79.96;100823.87;1825431;78;27402;-69
2021/08/25 01:56:41;;;;;;;15.23;7.10;;;;;;;9.01;79.83;100821.78;1825213;78;25932;-70
2021/08/25 01:59:09;;;;;;;11.70;6.72;;;;;;;8.95;79.58;100818.30;1825387;78;25817;-70
2021/08/25 02:01:38;;;;;;;19.25;7.35;;;;;;;8.89;79.55;100819.46;1825072;78;25786;-69
2021/08/25 02:04:04;;;;;;;13.45;6.72;;;;;;;8.84;79.54;100815.46;1825303;78;25726;-69
2021/08/25 02:06:30;;;;;;;16.25;6.72;;;;;;;8.80;79.63;100813.05;1825410;78;27311;-69
2021/08/25 02:08:57;;;;;;;15.90;6.65;;;;;;;8.72;79.61;100813.14;1825233;78;25921;-70
2021/08/25 02:11:24;;;;;;;12.68;6.70;;;;;;;8.68;79.58;100812.08;1825182;78;26415;-70
2021/08/25 02:13:52;;;;;;;10.18;6.50;;;;;;;8.62;79.57;100810.53;1825360;78;25718;-70
2021/08/25 02:16:18;;;;;;;12.20;6.53;;;;;;;8.56;79.63;100805.73;1825415;78;25849;-69
2021/08/25 02:18:46;;;;;;;15.48;7.60;;;;;;;8.52;79.73;100805.23;1825180;78;27295;-69
2021/08/25 02:21:13;;;;;;;16.10;7.12;;;;;;;8.48;79.82;100810.38;1825164;78;25640;-69
2021/08/25 02:23:40;;;;;;;13.65;6.72;;;;;;;8.44;79.92;100806.63;1825338;78;26438;-70
2021/08/25 02:26:07;;;;;;;16.67;7.47;;;;;;;8.40;80.08;100798.82;1819939;78;25665;-70
2021/08/25 02:28:33;;;;;;;12.15;6.45;;;;;;;8.36;79.89;100799.10;1819194;78;25809;-69
2021/08/25 02:31:00;;;;;;;11.55;6.45;;;;;;;8.30;79.92;100802.94;1819323;78;27304;-70
2021/08/25 02:33:26;;;;;;;15.00;7.30;;;;;;;8.25;79.94;100797.04;1819009;78;25830;-70
2021/08/25 02:35:52;;;;;;;14.93;6.72;;;;;;;8.22;80.15;100791.68;1819293;78;25796;-70
2021/08/25 02:38:19;;;;;;;12.82;7.03;;;;;;;8.18;80.13;100789.27;1819073;78;25695;-70
2021/08/25 02:40:45;;;;;;;16.27;6.90;;;;;;;8.15;80.25;100787.13;1819135;78;25889;-70
2021/08/25 02:43:12;;;;;;;14.10;7.47;;;;;;;8.14;80.38;100784.71;1819193;78;27403;-69
2021/08/25 02:45:38;;;;;;;14.30;7.03;;;;;;;8.11;80.34;100788.78;1819320;78;25661;-69
2021/08/25 02:48:05;;;;;;;15.55;6.65;;;;;;;8.08;80.30;100787.20;1819118;78;25884;-69
2021/08/25 02:50:32;;;;;;;12.82;6.42;;;;;;;8.02;80.25;100785.09;1819238;78;25857;-69
2021/08/25 02:52:58;;;;;;;12.20;6.72;;;;;;;7.98;80.38;100787.51;1819369;78;25755;-69
2021/08/25 02:55:24;;;;;;;13.85;7.03;;;;;;;7.95;80.36;100785.92;1819116;78;28473;-69
2021/08/25 02:57:50;;;;;;;11.28;6.75;;;;;;;7.92;80.42;100777.07;1819152;78;25912;-68
2021/08/25 03:00:17;;;;;;;17.73;7.45;;;;;;;7.90;80.53;100785.43;1819146;78;25723;-69
2021/08/25 03:02:44;;;;;;;15.20;7.67;;;;;;;7.88;80.74;100778.70;1787147;78;25999;-69
2021/08/25 03:05:12;;;;;;;14.15;7.10;;;;;;;7.86;80.99;100774.38;1819141;78;25764;-69
2021/08/25 03:07:39;;;;;;;15.97;7.60;;;;;;;7.85;81.05;100775.48;1788525;78;27984;-69
2021/08/25 03:10:07;;;;;;;12.93;6.97;;;;;;;7.83;80.96;100777.66;1818959;78;25771;-69
2021/08/25 03:12:34;;;;;;;15.28;7.58;;;;;;;7.79;80.92;100779.28;1819476;78;26428;-69
2021/08/25 03:15:00;;;;;;;12.47;6.95;;;;;;;7.76;80.99;100774.44;1819332;78;25861;-69
2021/08/25 03:17:29;;;;;;;15.68;7.22;;;;;;;7.77;81.15;100765.84;1819355;78;26415;-69
2021/08/25 03:19:56;;;;;;;13.13;6.97;;;;;;;7.76;81.28;100765.02;1819743;78;28117;-69
2021/08/25 03:22:22;;;;;;;12.05;6.28;;;;;;;7.76;81.15;100757.48;1819263;78;25818;-69
2021/08/25 03:24:49;;;;;;;14.25;7.35;;;;;;;7.76;81.42;100760.98;1820215;78;25766;-68
2021/08/25 03:27:16;;;;;;;17.10;7.62;;;;;;;7.72;81.21;100754.55;1825450;78;26370;-69
2021/08/25 03:29:42;;;;;;;15.90;7.70;;;;;;;7.71;81.30;100756.97;1825624;78;25821;-69
2021/08/25 03:32:08;;;;;;;12.10;7.03;;;;;;;7.70;81.55;100758.07;1795334;78;28156;-69
2021/08/25 03:34:35;;;;;;;16.48;7.78;;;;;;;7.70;81.56;100762.11;1825301;78;25683;-69
2021/08/25 03:37:03;;;;;;;13.03;6.75;;;;;;;7.68;81.57;100760.23;1825456;78;25791;-69
2021/08/25 03:39:31;;;;;;;13.53;7.10;;;;;;;7.69;81.66;100760.48;1825290;78;25712;-69
2021/08/25 03:41:57;;;;;;;13.48;7.42;;;;;;;7.69;81.63;100753.75;1825475;78;26347;-69
2021/08/25 03:44:23;;;;;;;16.87;7.90;;;;;;;7.70;81.91;100760.76;1825498;78;27301;-69
2021/08/25 03:46:50;;;;;;;12.90;6.58;;;;;;;7.72;82.04;100757.80;1825244;78;25860;-70
2021/08/25 03:49:17;;;;;;;14.95;8.28;;;;;;;7.72;82.13;100759.14;1825474;78;25777;-69
2021/08/25 03:51:43;;;;;;;16.62;8.70;;;;;;;7.73;82.18;100760.73;1825454;78;25719;-69
2021/08/25 03:54:09;;;;;;;17.92;8.68;;;;;;;7.74;82.22;100759.66;1825230;78;26281;-70
2021/08/25 03:56:36;;;;;;;15.43;8.28;;;;;;;7.74;82.09;100764.50;1825394;78;27438;-69
2021/08/25 03:59:03;;;;;;;16.23;8.83;;;;;;;7.76;82.15;100760.18;1825341;78;25652;-69
2021/08/25 04:01:30;;;;;;;18.65;8.20;;;;;;;7.78;82.25;100758.83;1825326;78;25830;-69
2021/08/25 04:03:57;;;;;;;17.85;8.70;;;;;;;7.82;82.55;100755.83;1825437;78;25632;-69
2021/08/25 04:06:23;;;;;;;16.82;7.83;;;;;;;7.85;82.74;100755.83;1825453;78;25802;-69
2021/08/25 04:08:50;;;;;;;15.60;8.28;;;;;;;7.89;82.79;100757.42;1769646;78;27302;-69
2021/08/25 04:11:20;;;;;;;20.52;8.50;;;;;;;7.93;82.89;100759.81;1825329;78;25776;-69
2021/08/25 04:13:47;;;;;;;16.55;8.10;;;;;;;7.96;83.00;100753.31;1825494;78;25771;-69
2021/08/25 04:16:14;;;;;;;16.73;8.35;;;;;;;8.00;83.28;100751.69;1825186;78;26338;-70
2021/08/25 04:18:41;;;;;;;23.10;9.23;;;;;;;8.08;83.36;100742.74;1825519;78;26074;-70
2021/08/25 04:21:07;;;;;;;18.65;8.58;;;;;;;8.12;83.47;100747.30;1825372;78;27305;-67
2021/08/25 04:23:34;;;;;;;19.80;9.15;;;;;;;8.17;83.56;100747.26;1825076;78;26352;-70
2021/08/25 04:26:00;;;;;;;17.23;9.08;;;;;;;8.23;83.73;100747.45;1822220;78;25699;-70
2021/08/25 04:28:27;;;;;;;14.73;8.60;;;;;;;8.29;84.02;100745.55;1819296;78;25814;-70
2021/08/25 04:30:53;;;;;;;22.15;9.95;;;;;;;8.36;84.13;100746.55;1819172;78;25755;-70
2021/08/25 04:33:20;;;;;;;17.15;9.38;;;;;;;8.43;84.19;100757.86;1819432;78;27059;-70
2021/08/25 04:35:46;;;;;;;19.12;8.88;;;;;;;8.50;84.27;100751.59;1819381;78;25727;-70
2021/08/25 04:38:12;;;;;;;16.90;9.15;;;;;;;8.56;84.37;100748.29;1787145;78;26420;-70
2021/08/25 04:40:39;;;;;;;17.30;8.78;;;;;;;8.63;84.53;100751.45;1819367;78;26270;-70
2021/08/25 04:43:06;;;;;;;15.55;8.58;;;;;;;8.70;84.55;100749.77;1819353;78;25786;-70
2021/08/25 04:45:32;;;;;;;17.52;8.65;;;;;;;8.77;84.66;100749.70;1819186;78;27397;-70
2021/08/25 04:47:59;;;;;;;16.23;8.30;;;;;;;8.87;84.72;100750.68;1819294;78;25660;-67
2021/08/25 04:50:25;;;;;;;16.80;8.88;;;;;;;8.94;84.74;100750.61;1819288;78;25724;-68
2021/08/25 04:52:52;;;;;;;18.75;8.40;;;;;;;9.02;84.80;100746.47;1819249;78;26436;-69
2021/08/25 04:55:18;;;;;;;24.75;9.75;;;;;;;9.09;84.90;100744.77;1819501;78;25526;-69
2021/08/25 04:57:45;;;;;;;17.05;8.95;;;;;;;9.19;84.90;100743.86;1787828;78;27311;-69
2021/08/25 05:00:13;;;;;;;14.20;8.00;;;;;;;9.25;84.77;100745.41;1819123;78;26395;-69
2021/08/25 05:02:39;;;;;;;13.62;8.03;;;;;;;9.33;84.74;100744.22;1819353;78;25748;-69
2021/08/25 05:05:08;;;;;;;19.82;7.67;;;;;;;9.39;84.41;100744.95;1819400;78;25680;-69
2021/08/25 05:07:35;;;;;;;15.03;9.25;;;;;;;9.46;84.63;100752.14;1783530;78;25723;-69
2021/08/25 05:10:02;;;;;;;33.40;9.08;;;;;;;9.57;84.80;100749.31;1819392;78;27556;-69
2021/08/25 05:12:28;;;;;;;19.23;8.40;;;;;;;9.64;84.77;100745.73;1819195;78;25716;-67
2021/08/25 05:14:54;;;;;;;17.37;8.58;;;;;;;9.73;84.82;100743.41;1787556;78;26274;-69
2021/08/25 05:17:22;;;;;;;16.75;7.78;;;;;;;9.82;84.87;100738.14;1819349;78;26253;-69
2021/08/25 05:19:48;;;;;;;19.02;9.48;;;;;;;9.92;84.79;100745.30;1819260;78;25735;-69
2021/08/25 05:22:15;;;;;;;15.88;8.83;;;;;;;10.01;84.86;100737.33;1819062;78;27274;-69
2021/08/25 05:24:41;;;;;;;17.85;8.50;;;;;;;10.12;84.87;100737.44;1819297;78;25783;-69
2021/08/25 05:27:08;;;;;;;15.68;8.83;;;;;;;10.18;84.45;100740.33;1819245;78;25680;-69
2021/08/25 05:29:35;;;;;;;14.00;8.28;;;;;;;10.25;84.48;100736.69;1819104;78;25679;-69
2021/08/25 05:32:02;;;;;;;13.60;7.78;;;;;;;10.34;84.31;100726.58;1819265;78;26360;-69
2021/08/25 05:34:29;;;;;;;13.32;7.30;;;;;;;10.43;84.53;100726.94;1819218;78;27317;-70
2021/08/25 05:36:55;;;;;;;30.30;14.68;;;;;;;10.53;84.68;100718.41;1818915;78;27125;-70
2021/08/25 05:39:21;;;;;;;54.93;31.30;;;;;;;10.65;84.75;100717.36;1819149;78;25821;-69
2021/08/25 05:41:48;;;;;;;22.45;12.80;;;;;;;10.80;85.17;100719.78;1808057;77;26368;-68
2021/08/25 05:44:15;;;;;;;16.07;8.28;;;;;;;10.92;84.72;100717.14;1809038;78;25743;-67
2021/08/25 05:46:41;;;;;;;13.32;7.80;;;;;;;11.02;84.78;100715.02;1804792;78;27786;-67
2021/08/25 05:49:08;;;;;;;18.42;8.73;;;;;;;11.15;84.50;100721.55;1785412;80;27230;-67
2021/08/25 05:51:34;;;;;;;14.63;7.25;;;;;;;11.27;84.41;100715.63;1768740;80;25866;-67
2021/08/25 05:54:00;;;;;;;16.70;7.80;;;;;;;11.45;84.58;100720.64;1784384;79;25735;-67
2021/08/25 05:56:26;;;;;;;14.58;8.20;;;;;;;11.63;84.59;100716.73;1783816;79;25665;-67
2021/08/25 05:58:53;;;;;;;17.98;7.28;;;;;;;11.76;84.29;100719.95;1781982;79;27376;-68
2021/08/25 06:01:20;;;;;;;12.70;7.40;;;;;;;11.86;83.56;100717.57;1780116;79;25728;-68
2021/08/25 06:03:46;;;;;;;14.07;7.80;;;;;;;11.94;83.13;100712.23;1784521;79;26371;-68
2021/08/25 06:06:13;;;;;;;15.72;7.30;;;;;;;12.07;83.23;100721.97;1786364;79;27231;-68
2021/08/25 06:08:40;;;;;;;12.28;6.42;;;;;;;12.18;83.00;100721.98;1784539;79;25747;-68
2021/08/25 06:11:07;;;;;;;17.82;6.87;;;;;;;12.27;82.85;100720.67;1782168;79;28033;-68
2021/08/25 06:13:35;;;;;;;16.42;7.60;;;;;;;12.40;82.92;100717.66;1791276;79;25812;-69
2021/08/25 06:16:02;;;;;;;10.45;6.45;;;;;;;12.50;82.79;100716.83;1782758;79;26422;-69
2021/08/25 06:18:28;;;;;;;14.53;6.90;;;;;;;12.62;82.69;100718.16;1784184;79;26049;-68
2021/08/25 06:20:55;;;;;;;14.90;6.87;;;;;;;12.72;82.49;100711.11;1783168;79;26394;-69
2021/08/25 06:23:21;;;;;;;14.35;6.78;;;;;;;12.88;82.39;100711.48;1784616;78;27742;-69
2021/08/25 06:25:49;;;;;;;18.90;7.08;;;;;;;13.04;82.48;100707.23;1790736;78;26105;-69
2021/08/25 06:28:16;;;;;;;13.05;6.85;;;;;;;13.19;82.17;100711.40;1754886;79;25914;-68
2021/08/25 06:30:43;;;;;;;11.38;6.28;;;;;;;13.40;82.21;100713.54;1778174;79;25674;-68
2021/08/25 06:33:09;;;;;;;16.40;7.50;;;;;;;13.52;81.70;100708.30;1792114;78;25806;-68
2021/08/25 06:35:36;;;;;;;14.05;7.05;;;;;;;13.72;82.10;100712.28;1789232;78;27365;-69
2021/08/25 06:38:02;;;;;;;11.10;6.80;;;;;;;13.98;81.78;100710.94;1789019;78;25843;-67
2021/08/25 06:40:32;;;;;;;13.48;6.78;;;;;;;14.31;81.06;100714.47;1789149;78;25730;-68
2021/08/25 06:42:59;;;;;;;12.60;6.60;;;;;;;14.54;79.85;100706.08;1793556;78;25721;-68
2021/08/25 06:45:26;;;;;;;13.83;7.15;;;;;;;14.64;78.51;100701.69;1767242;78;25789;-68
2021/08/25 06:47:52;;;;;;;11.90;6.28;;;;;;;14.75;78.48;100698.83;1796716;78;29375;-68
2021/08/25 06:50:19;;;;;;;10.90;6.35;;;;;;;14.91;77.76;100703.72;1788041;78;27232;-69
2021/08/25 06:52:45;;;;;;;14.35;6.83;;;;;;;15.02;77.93;100699.51;1794557;78;26039;-66
2021/08/25 06:55:11;;;;;;;14.60;6.37;;;;;;;15.30;78.51;100695.71;1793932;78;26337;-68
2021/08/25 06:57:38;;;;;;;11.70;6.78;;;;;;;15.50;76.96;100692.77;1770670;79;26458;-68
2021/08/25 07:00:07;;;;;;;14.38;6.10;;;;;;;15.56;76.38;100688.48;1777019;79;27365;-68
2021/08/25 07:02:33;;;;;;;11.03;6.40;;;;;;;15.73;75.76;100688.91;1765846;78;25872;-68
2021/08/25 07:05:00;;;;;;;11.53;5.95;;;;;;;15.84;75.39;100680.02;1798082;78;26261;-68
2021/08/25 07:07:26;;;;;;;11.95;6.53;;;;;;;16.02;75.73;100679.84;1790251;78;25693;-69
2021/08/25 07:09:52;;;;;;;12.60;6.35;;;;;;;16.24;75.54;100681.37;1800522;78;26105;-70
2021/08/25 07:12:20;;;;;;;13.48;6.05;;;;;;;16.51;74.86;100673.12;1797462;78;29656;-69
2021/08/25 07:14:47;;;;;;;10.58;6.28;;;;;;;16.71;73.31;100678.84;1794103;78;25662;-70
2021/08/25 07:17:13;;;;;;;11.95;5.78;;;;;;;16.95;73.41;100672.02;1789595;78;25785;-67
2021/08/25 07:19:41;;;;;;;11.95;4.92;;;;;;;17.34;73.40;100673.78;1793885;78;25702;-67
2021/08/25 07:22:09;;;;;;;8.50;4.72;;;;;;;17.79;72.05;100677.97;1783112;78;25806;-68
2021/08/25 07:24:37;;;;;;;12.05;4.90;;;;;;;18.15;72.02;100672.94;1789840;78;27540;-69
2021/08/25 07:27:04;;;;;;;11.97;4.57;;;;;;;18.58;70.49;100671.27;1774643;79;25728;-69
2021/08/25 07:29:31;;;;;;;8.33;5.00;;;;;;;18.82;68.86;100666.20;1767161;80;25820;-68
2021/08/25 07:32:00;;;;;;;12.37;4.45;;;;;;;19.11;68.65;100664.11;1765476;80;25772;-68
2021/08/25 07:34:27;;;;;;;12.45;4.80;;;;;;;19.43;67.96;100665.38;1765819;80;25286;-67
2021/08/25 07:36:54;;;;;;;12.37;5.50;;;;;;;19.75;67.06;100655.09;1765618;80;27904;-71
2021/08/25 07:39:21;;;;;;;8.70;4.97;;;;;;;20.08;65.75;100652.94;1763926;79;26409;-59
2021/08/25 07:41:47;;;;;;;8.48;4.97;;;;;;;20.45;65.20;100647.69;1764352;79;25717;-62
2021/08/25 07:44:14;;;;;;;11.28;5.12;;;;;;;20.78;63.79;100646.26;1776115;80;25685;-60
2021/08/25 07:46:40;;;;;;;13.10;5.65;;;;;;;21.07;62.86;100644.70;1776413;80;25761;-61
2021/08/25 07:49:07;;;;;;;9.75;5.30;;;;;;;21.35;62.02;100642.70;1776226;80;27361;-61
2021/08/25 07:51:34;;;;;;;13.32;4.95;;;;;;;21.60;60.27;100636.94;1776010;80;26352;-60
2021/08/25 07:54:02;;;;;;;25.30;5.42;;;;;;;21.85;59.37;100639.19;1776171;80;25744;-62
2021/08/25 07:56:29;;;;;;;7.35;4.50;;;;;;;22.15;59.09;100634.16;1776135;80;26030;-61
2021/08/25 07:58:56;;;;;;;10.80;5.67;;;;;;;22.42;58.10;100630.67;1776102;80;25579;-62
2021/08/25 08:01:23;;;;;;;9.90;4.83;;;;;;;22.71;57.36;100637.20;1776186;80;28256;-62
2021/08/25 08:03:50;;;;;;;8.83;4.70;;;;;;;22.92;54.81;100629.65;1775929;80;25720;-63
2021/08/25 08:06:20;;;;;;;8.78;5.05;;;;;;;23.10;53.31;100624.27;1775961;80;25764;-59
2021/08/25 08:08:47;;;;;;;11.78;5.85;;;;;;;23.19;51.24;100624.48;1776322;80;26379;-58
2021/08/25 08:11:16;;;;;;;6.25;4.40;;;;;;;23.21;51.17;100624.31;1776243;80;25759;-59
2021/08/25 08:13:42;;;;;;;6.87;4.63;;;;;;;23.30;51.40;100620.59;1776283;80;27320;-59
2021/08/25 08:16:09;;;;;;;6.95;4.00;;;;;;;23.42;51.26;100616.70;1776169;80;25854;-59
2021/08/25 08:18:42;;;;;;;9.18;4.15;;;;;;;23.41;50.08;100620.66;1776229;80;25758;-59
2021/08/25 08:21:05;;;;;;;7.12;4.17;;;;;;;23.22;48.89;100614.05;1773343;80;26304;-59
2021/08/25 08:23:33;;;;;;;11.08;4.58;;;;;;;22.99;49.03;100617.87;1771907;80;25690;-59
2021/08/25 08:26:00;;;;;;;7.42;4.10;;;;;;;22.86;49.13;100621.53;1774251;80;27359;-60
2021/08/25 08:28:27;;;;;;;12.37;5.87;;;;;;;22.81;48.97;100615.59;1774616;79;25688;-61
2021/08/25 08:30:54;;;;;;;10.08;4.40;;;;;;;22.88;49.52;100618.39;1777147;79;25708;-75
2021/08/25 08:33:20;;;;;;;11.10;4.58;;;;;;;23.05;48.29;100613.55;1790252;79;26387;-76
2021/08/25 08:35:46;;;;;;;8.13;4.50;;;;;;;23.33;47.91;100609.95;1778343;79;25847;-61
2021/08/25 08:38:15;;;;;;;7.97;4.72;;;;;;;23.18;46.43;100609.91;1782829;79;25843;-59
2021/08/25 08:40:41;;;;;;;8.40;4.55;;;;;;;22.88;45.97;100603.22;1771163;79;26442;-60
2021/08/25 08:43:10;;;;;;;8.15;4.58;;;;;;;22.61;46.18;100603.47;1784355;79;25704;-60
2021/08/25 08:45:43;;;;;;;11.73;4.45;;;;;;;22.37;45.97;100597.95;1794816;79;26325;-60
2021/08/25 08:48:13;;;;;;;4.83;3.55;;;;;;;22.13;46.16;100594.59;1767883;79;25793;-59
2021/08/25 08:50:42;;;;;;;10.58;4.42;;;;;;;21.86;45.25;100590.41;1794704;79;27136;-58
2021/08/25 08:53:12;;;;;;;8.03;4.25;;;;;;;21.73;45.01;100594.82;1785645;79;26385;-58
2021/08/25 08:55:39;;;;;;;8.30;3.83;;;;;;;21.85;46.85;100579.99;1774317;80;25776;-59
2021/08/25 08:58:06;;;;;;;8.13;4.95;;;;;;;22.34;46.35;100577.48;1774291;80;26318;-58
2021/08/25 09:00:34;;;;;;;9.38;4.20;;;;;;;22.47;45.80;100580.71;1774366;80;25677;-58
2021/08/25 09:03:00;;;;;;;8.48;3.60;;;;;;;22.33;45.18;100577.86;1774334;80;27306;-58
2021/08/25 09:05:33;;;;;;;8.03;4.35;;;;;;;22.09;44.38;100575.87;1774234;80;25620;-58
2021/08/25 09:08:05;;;;;;;8.50;4.12;;;;;;;21.82;44.23;100571.89;1774414;80;25767;-58
2021/08/25 09:10:37;;;;;;;7.55;4.83;;;;;;;21.56;44.16;100574.80;1774517;80;25860;-58
2021/08/25 09:13:07;;;;;;;11.93;4.80;;;;;;;21.32;44.50;100565.85;1780274;80;25709;-59
2021/08/25 09:15:38;;;;;;;11.60;4.80;;;;;;;21.24;45.73;100562.80;1777053;79;27494;-59
2021/08/25 09:18:09;;;;;;;11.10;4.47;;;;;;;21.76;46.94;100561.03;1776133;80;25819;-58
2021/08/25 09:20:42;;;;;;;9.63;4.28;;;;;;;22.46;46.46;100564.55;1775848;80;25712;-58
2021/08/25 09:23:14;;;;;;;10.45;3.85;;;;;;;22.88;45.84;100560.47;1775916;80;26319;-58
2021/08/25 09:25:42;;;;;;;9.98;4.70;;;;;;;23.44;44.88;100552.23;1776222;80;25753;-58
2021/08/25 09:28:12;;;;;;;9.10;4.35;;;;;;;23.81;45.00;100551.14;1794884;79;27373;-60
2021/08/25 09:30:53;;;;;;;6.90;4.17;;;;;;;24.46;45.02;100549.72;1804980;79;25760;-60
2021/08/25 09:33:27;;;;;;;7.30;3.95;;;;;;;25.12;43.99;100542.83;1804900;79;26411;-58
2021/08/25 09:36:01;;;;;;;6.95;4.47;;;;;;;25.25;42.17;100541.19;1804845;79;25713;-58
2021/08/25 09:38:30;;;;;;;7.25;3.98;;;;;;;25.24;41.90;100538.22;1805114;79;25711;-59
2021/08/25 09:41:02;;;;;;;6.67;3.95;;;;;;;24.98;40.97;100534.78;1804791;79;28059;-61
2021/08/25 09:43:40;;;;;;;7.53;4.15;;;;;;;24.65;41.05;100531.93;1800212;79;25705;-65
2021/08/25 09:46:14;;;;;;;10.43;4.75;;;;;;;24.40;41.02;100528.62;1803133;79;25673;-64
2021/08/25 09:48:50;;;;;;;8.55;4.50;;;;;;;24.15;41.06;100523.12;1804354;79;26129;-63
2021/08/25 09:51:20;;;;;;;8.70;5.33;;;;;;;24.25;41.00;100517.39;1804991;79;25718;-63
2021/08/25 09:53:50;;;;;;;10.35;5.72;;;;;;;24.30;41.41;100516.21;1791675;79;28503;-64
2021/08/25 09:56:27;;;;;;;8.08;4.67;;;;;;;24.61;41.84;100514.58;1743802;80;25800;-64
2021/08/25 09:58:55;;;;;;;8.95;4.80;;;;;;;24.83;41.00;100500.07;1786611;80;26134;-62
2021/08/25 10:01:23;;;;;;;8.48;3.92;;;;;;;24.69;40.49;100502.88;1786044;80;25700;-63
2021/08/25 10:03:49;;;;;;;10.05;5.12;;;;;;;24.38;40.13;100500.59;1799372;78;25743;-62
2021/08/25 10:06:18;;;;;;;6.35;4.28;;;;;;;24.05;40.95;100499.05;1786207;78;27372;-61
2021/08/25 10:08:46;;;;;;;;;;;;;;;24.06;41.23;100492.36;1770988;80;25818;-61
2021/08/25 10:11:13;;;;;;;7.90;4.47;;;;;;;23.88;40.47;100493.73;1780466;79;25692;-61
2021/08/25 10:13:41;;;;;;;7.80;4.40;;;;;;;23.43;40.57;100496.06;1773103;80;25803;-61
2021/08/25 10:16:13;;;;;;;13.90;4.92;;;;;;;23.06;40.84;100492.41;1780981;79;25857;-61
2021/08/25 10:18:45;;;;;;;12.15;4.67;;;;;;;22.81;41.08;100484.61;1753390;80;28160;-61
2021/08/25 10:21:40;;;;;;;7.28;4.47;;;;;;;22.52;41.76;100477.59;1771660;80;26279;-61
2021/08/25 10:24:05;;;;;;;11.05;4.45;;;;;;;22.75;43.23;100472.58;1692058;84;26447;-60
2021/08/25 10:26:53;;;;;;;7.53;4.57;;;;;;;23.49;42.60;100465.49;1742247;82;25811;-61
2021/08/25 10:29:19;;;;;;;7.62;4.83;;;;;;;23.72;41.05;100461.55;1742302;82;25841;-60
2021/08/25 10:31:54;;;;;;;6.72;4.40;;;;;;;23.40;38.85;100463.13;1742189;82;27383;-59
2021/08/25 10:34:27;;;;;;;7.12;4.65;;;;;;;23.19;41.36;100458.38;1752921;80;27195;-61
2021/08/25 10:37:01;;;;;;;11.70;5.00;;;;;;;23.79;41.75;100450.52;1771328;80;25814;-60
2021/08/25 10:39:36;;;;;;;10.63;4.70;;;;;;;24.01;40.12;100450.72;1718360;82;25988;-60
2021/08/25 10:42:05;;;;;;;7.50;4.20;;;;;;;24.02;40.53;100448.16;1742132;82;25732;-60
2021/08/25 10:44:43;;;;;;;8.60;5.05;;;;;;;24.00;40.41;100452.49;1771593;79;28155;-60
2021/08/25 10:47:16;;;;;;;7.95;5.30;;;;;;;23.86;40.43;100443.63;1769119;80;26370;-59
2021/08/25 10:49:46;;;;;;;9.85;5.85;;;;;;;23.74;40.36;100446.18;1764843;80;26460;-60
2021/08/25 10:52:21;;;;;;;8.98;5.10;;;;;;;23.77;40.82;100432.16;1750351;80;25815;-60
2021/08/25 10:54:50;;;;;;;7.95;4.78;;;;;;;23.86;40.20;100430.61;1741929;82;26387;-60
2021/08/25 10:57:23;;;;;;;11.28;5.62;;;;;;;23.74;39.54;100428.23;1769585;80;27305;-60
2021/08/25 10:59:52;;;;;;;8.58;5.40;;;;;;;23.41;39.46;100422.50;1803706;77;26395;-59
2021/08/25 11:02:19;;;;;;;9.43;5.90;;;;;;;23.17;39.77;100425.44;1846571;77;25708;-59
2021/08/25 11:04:45;;;;;;;11.73;4.87;;;;;;;22.94;40.09;100417.69;1834850;77;26321;-59
2021/08/25 11:07:13;;;;;;;8.58;5.95;;;;;;;22.71;40.48;100418.03;1847535;77;25912;-59
2021/08/25 11:09:45;;;;;;;10.78;4.90;;;;;;;22.56;40.80;100410.29;1841720;76;27308;-60
2021/08/25 11:12:24;;;;;;;8.08;4.35;;;;;;;22.46;41.35;100408.84;1840625;75;25821;-59
2021/08/25 11:14:55;;;;;;;10.08;4.30;;;;;;;22.29;40.87;100404.86;1838522;77;25714;-57
2021/08/25 11:17:32;;;;;;;10.65;5.20;;;;;;;22.19;41.81;100397.48;1835602;76;26429;-58
2021/08/25 11:20:03;;;;;;;9.90;5.35;;;;;;;22.37;41.47;100394.86;1831915;77;25663;-57
2021/08/25 11:22:40;;;;;;;9.78;4.50;;;;;;;22.19;40.15;100398.09;1841518;76;27424;-57
2021/08/25 11:25:13;;;;;;;8.20;4.28;;;;;;;21.92;40.58;100399.70;1835707;77;25782;-57